createdAt,value
2022-12-03T00:01:01.289Z,51.78
2022-12-03T00:03:29.759Z,53.56
2022-12-03T00:05:58.007Z,54.76
2022-12-03T00:08:25.984Z,56.25
2022-12-03T00:10:53.877Z,57.90
2022-12-03T00:13:21.827Z,58.96
2022-12-03T00:15:50.315Z,61.20
2022-12-03T00:18:18.205Z,68.64
2022-12-03T00:20:46.121Z,70.27
2022-12-03T00:23:13.968Z,67.15
2022-12-03T00:25:41.889Z,53.34
2022-12-03T00:28:09.770Z,48.73
2022-12-03T00:30:37.962Z,51.04
2022-12-03T00:33:05.898Z,53.03
2022-12-03T00:35:33.785Z,54.71
2022-12-03T00:38:01.698Z,57.46
2022-12-03T00:40:29.553Z,57.96
2022-12-03T00:42:57.460Z,61.18
2022-12-03T00:45:25.313Z,69.29
2022-12-03T00:47:53.230Z,72.97
2022-12-03T00:50:21.088Z,67.19
2022-12-03T00:52:50.052Z,52.97
2022-12-03T00:55:18.141Z,50.83
2022-12-03T00:57:46.155Z,51.51
2022-12-03T01:00:15.500Z,52.63
2022-12-03T01:02:44.088Z,55.69
2022-12-03T01:05:12.039Z,58.56
2022-12-03T01:07:40.187Z,58.80
2022-12-03T01:10:08.498Z,59.91
2022-12-03T01:12:36.396Z,67.65
2022-12-03T01:15:05.928Z,70.18
2022-12-03T01:17:33.888Z,60.38
2022-12-03T01:20:02.661Z,54.77
2022-12-03T01:22:30.631Z,52.13
2022-12-03T01:24:58.678Z,52.71
2022-12-03T01:27:26.896Z,54.71
2022-12-03T01:29:54.859Z,57.45
2022-12-03T01:32:22.889Z,59.04
2022-12-03T01:34:54.903Z,60.47
2022-12-03T01:37:26.302Z,66.92
2022-12-03T01:39:54.825Z,73.89
2022-12-03T01:42:29.125Z,66.76
2022-12-03T01:44:59.660Z,62.72
2022-12-03T01:47:36.553Z,53.53
2022-12-03T01:50:27.681Z,49.37
2022-12-03T01:53:01.664Z,51.79
2022-12-03T01:55:30.358Z,53.49
2022-12-03T01:58:02.002Z,57.21
2022-12-03T02:00:31.852Z,59.77
2022-12-03T02:03:07.559Z,65.67
2022-12-03T02:05:37.570Z,71.77
2022-12-03T02:08:35.128Z,61.59
2022-12-03T02:11:30.503Z,50.82
2022-12-03T02:14:11.049Z,51.65
2022-12-03T02:16:41.835Z,54.93
2022-12-03T02:19:27.028Z,56.33
2022-12-03T02:22:16.892Z,59.13
2022-12-03T02:25:05.684Z,60.03
2022-12-03T02:27:33.953Z,69.16
2022-12-03T02:30:01.913Z,70.71
2022-12-03T02:32:29.826Z,61.80
2022-12-03T02:34:57.705Z,54.54
2022-12-03T02:37:32.723Z,52.44
2022-12-03T02:40:10.825Z,53.36
2022-12-03T02:42:39.509Z,55.16
2022-12-03T02:45:25.311Z,57.78
2022-12-03T02:48:00.875Z,61.14
2022-12-03T02:50:46.353Z,69.53
2022-12-03T02:53:21.316Z,71.34
2022-12-03T02:55:52.707Z,66.03
2022-12-03T02:58:23.265Z,62.58
2022-12-03T03:00:55.704Z,54.67
2022-12-03T03:03:28.449Z,49.69
2022-12-03T03:05:58.303Z,51.18
2022-12-03T03:08:27.495Z,54.43
2022-12-03T03:10:57.503Z,56.03
2022-12-03T03:13:25.467Z,57.18
2022-12-03T03:15:53.457Z,60.38
2022-12-03T03:18:21.427Z,64.11
2022-12-03T03:20:49.349Z,74.32
2022-12-03T03:23:21.414Z,69.25
2022-12-03T03:26:00.512Z,62.86
2022-12-03T03:28:30.976Z,53.95
2022-12-03T03:31:04.271Z,50.04
2022-12-03T03:33:33.142Z,52.18
2022-12-03T03:36:01.641Z,52.35
2022-12-03T03:38:30.620Z,55.10
2022-12-03T03:41:02.171Z,58.24
2022-12-03T03:43:33.524Z,60.64
2022-12-03T03:46:05.579Z,59.27
2022-12-03T03:48:35.490Z,61.41
2022-12-03T03:51:09.083Z,69.78
2022-12-03T03:53:41.331Z,75.26
2022-12-03T03:56:10.822Z,68.78
2022-12-03T03:58:39.022Z,58.08
2022-12-03T04:01:07.778Z,51.68
2022-12-03T04:03:35.724Z,52.80
2022-12-03T04:06:04.093Z,54.64
2022-12-03T04:08:32.357Z,55.34
2022-12-03T04:11:19.310Z,57.11
2022-12-03T04:13:47.199Z,59.97
2022-12-03T04:16:15.194Z,67.75
2022-12-03T04:18:43.167Z,73.73
2022-12-03T04:21:35.961Z,66.55
2022-12-03T04:24:06.413Z,58.50
2022-12-03T04:26:54.318Z,50.90
2022-12-03T04:29:23.346Z,51.58
2022-12-03T04:32:10.490Z,54.19
2022-12-03T04:34:57.430Z,56.35
2022-12-03T04:37:25.561Z,58.89
2022-12-03T04:39:53.475Z,67.00
2022-12-03T04:42:21.707Z,72.43
2022-12-03T04:44:50.668Z,66.43
2022-12-03T04:47:22.518Z,61.27
2022-12-03T04:49:52.120Z,55.79
2022-12-03T04:52:21.358Z,53.21
2022-12-03T04:54:49.430Z,54.77
2022-12-03T04:57:17.490Z,58.00
2022-12-03T04:59:45.547Z,59.23
2022-12-03T05:02:13.471Z,64.88
2022-12-03T05:04:42.215Z,72.94
2022-12-03T05:07:10.104Z,65.28
2022-12-03T05:09:37.985Z,63.91
2022-12-03T05:12:06.272Z,54.10
2022-12-03T05:14:34.153Z,51.03
2022-12-03T05:17:02.165Z,52.81
2022-12-03T05:19:59.500Z,54.52
2022-12-03T05:22:27.349Z,54.91
2022-12-03T05:24:55.585Z,58.07
2022-12-03T05:27:24.392Z,59.11
2022-12-03T05:29:53.129Z,67.55
2022-12-03T05:32:21.163Z,72.93
2022-12-03T05:34:49.212Z,73.84
2022-12-03T05:37:17.116Z,67.37
2022-12-03T05:39:45.103Z,56.18
2022-12-03T05:42:31.893Z,50.96
2022-12-03T05:44:59.818Z,52.20
2022-12-03T05:47:27.649Z,55.27
2022-12-03T05:49:55.491Z,57.25
2022-12-03T05:52:23.357Z,59.06
2022-12-03T05:54:51.385Z,68.21
2022-12-03T05:57:19.469Z,73.00
2022-12-03T05:59:47.459Z,66.84
2022-12-03T06:02:15.495Z,54.14
2022-12-03T06:04:43.484Z,50.56
2022-12-03T06:07:14.084Z,53.13
2022-12-03T06:09:42.357Z,56.26
2022-12-03T06:12:10.280Z,57.93
2022-12-03T06:14:38.126Z,59.57
2022-12-03T06:17:06.087Z,68.60
2022-12-03T06:19:34.351Z,73.44
2022-12-03T06:22:02.308Z,65.92
2022-12-03T06:24:30.250Z,53.29
2022-12-03T06:26:58.129Z,49.74
2022-12-03T06:29:25.976Z,51.48
2022-12-03T06:31:53.848Z,52.31
2022-12-03T06:34:21.813Z,55.70
2022-12-03T06:36:50.421Z,57.26
2022-12-03T06:39:19.085Z,66.73
2022-12-03T06:41:47.023Z,72.07
2022-12-03T06:44:15.463Z,57.78
2022-12-03T06:46:43.588Z,53.03
2022-12-03T06:49:11.522Z,53.91
2022-12-03T06:51:39.656Z,55.09
2022-12-03T06:54:07.636Z,57.93
2022-12-03T06:56:41.841Z,59.80
2022-12-03T06:59:13.900Z,69.22
2022-12-03T07:01:41.989Z,75.18
2022-12-03T07:04:10.167Z,66.78
2022-12-03T07:06:37.998Z,56.18
2022-12-03T07:09:05.878Z,50.51
2022-12-03T07:11:39.939Z,52.47
2022-12-03T07:14:11.352Z,52.82
2022-12-03T07:16:40.149Z,54.67
2022-12-03T07:19:08.129Z,56.06
2022-12-03T07:21:36.259Z,58.24
2022-12-03T07:24:04.380Z,60.60
2022-12-03T07:26:32.970Z,68.11
2022-12-03T07:29:00.930Z,75.15
2022-12-03T07:31:28.919Z,68.98
2022-12-03T07:33:56.845Z,61.20
2022-12-03T07:36:25.298Z,51.08
2022-12-03T07:38:53.252Z,48.29
2022-12-03T07:41:21.145Z,49.90
2022-12-03T07:43:49.112Z,51.61
2022-12-03T07:46:17.099Z,54.03
2022-12-03T07:48:45.022Z,57.58
2022-12-03T07:51:15.239Z,60.08
2022-12-03T07:53:43.768Z,61.13
2022-12-03T07:56:11.713Z,70.64
2022-12-03T07:58:39.705Z,74.23
2022-12-03T08:01:07.790Z,63.15
2022-12-03T08:03:36.087Z,54.99
2022-12-03T08:06:05.328Z,51.55
2022-12-03T08:08:33.202Z,52.98
2022-12-03T08:11:02.367Z,53.44
2022-12-03T08:13:30.408Z,55.50
2022-12-03T08:16:10.292Z,65.73
2022-12-03T08:18:38.314Z,71.91
2022-12-03T08:21:06.924Z,60.54
2022-12-03T08:23:34.810Z,50.96
2022-12-03T08:26:07.134Z,50.27
2022-12-03T08:28:36.223Z,51.32
2022-12-03T08:31:12.442Z,53.59
2022-12-03T08:33:51.688Z,56.73
2022-12-03T08:36:26.337Z,58.72
2022-12-03T08:39:02.277Z,60.36
2022-12-03T08:41:51.628Z,67.22
2022-12-03T08:44:41.091Z,76.79
2022-12-03T08:47:23.957Z,63.61
2022-12-03T08:50:26.312Z,53.23
2022-12-03T08:53:06.947Z,51.01
2022-12-03T08:55:39.119Z,52.50
2022-12-03T08:58:41.715Z,54.83
2022-12-03T09:01:12.403Z,57.52
2022-12-03T09:03:52.361Z,59.00
2022-12-03T09:06:22.144Z,69.71
2022-12-03T09:08:50.194Z,71.50
2022-12-03T09:11:18.181Z,64.88
2022-12-03T09:13:46.060Z,54.55
2022-12-03T09:16:14.032Z,50.56
2022-12-03T09:18:42.833Z,51.72
2022-12-03T09:21:10.945Z,53.76
2022-12-03T09:23:38.857Z,54.35
2022-12-03T09:26:06.868Z,57.34
2022-12-03T09:28:34.768Z,59.28
2022-12-03T09:31:02.704Z,70.10
2022-12-03T09:33:32.515Z,72.88
2022-12-03T09:36:00.384Z,66.77
2022-12-03T09:38:28.281Z,57.15
2022-12-03T09:40:56.173Z,51.39
2022-12-03T09:43:24.581Z,52.26
2022-12-03T09:45:57.934Z,54.98
2022-12-03T09:48:26.250Z,56.60
2022-12-03T09:50:54.395Z,59.20
2022-12-03T09:53:27.429Z,67.55
2022-12-03T09:55:59.584Z,73.04
2022-12-03T09:58:34.518Z,64.71
2022-12-03T10:01:02.977Z,54.94
2022-12-03T10:03:32.209Z,52.04
2022-12-03T10:06:00.087Z,53.52
2022-12-03T10:08:32.140Z,55.04
2022-12-03T10:11:00.462Z,59.04
2022-12-03T10:13:34.650Z,58.68
2022-12-03T10:16:02.718Z,67.89
2022-12-03T10:18:41.287Z,74.39
2022-12-03T10:21:34.295Z,61.95
2022-12-03T10:24:26.015Z,51.94
2022-12-03T10:27:00.693Z,51.65
2022-12-03T10:29:35.142Z,53.24
2022-12-03T10:32:10.285Z,56.83
2022-12-03T10:34:41.590Z,58.17
2022-12-03T10:37:20.177Z,58.92
2022-12-03T10:40:10.839Z,68.85
2022-12-03T10:42:41.591Z,74.35
2022-12-03T10:45:25.449Z,67.54
2022-12-03T10:48:20.328Z,52.91
2022-12-03T10:50:52.188Z,50.39
2022-12-03T10:53:26.313Z,51.99
2022-12-03T10:55:59.810Z,52.87
2022-12-03T10:58:34.210Z,58.12
2022-12-03T11:01:14.239Z,67.11
2022-12-03T11:03:42.663Z,69.96
2022-12-03T11:06:18.601Z,61.36
2022-12-03T11:08:56.543Z,52.47
2022-12-03T11:11:30.212Z,49.45
2022-12-03T11:14:04.461Z,52.38
2022-12-03T11:16:41.627Z,52.36
2022-12-03T11:19:12.631Z,55.85
2022-12-03T11:22:05.534Z,56.87
2022-12-03T11:24:37.088Z,57.73
2022-12-03T11:27:04.996Z,67.87
2022-12-03T11:29:56.254Z,73.90
2022-12-03T11:33:01.328Z,60.32
2022-12-03T11:36:04.040Z,51.05
2022-12-03T11:38:38.348Z,49.92
2022-12-03T11:41:18.306Z,53.78
2022-12-03T11:43:52.270Z,54.36
2022-12-03T11:46:36.671Z,56.80
2022-12-03T11:49:32.091Z,57.39
2022-12-03T11:52:11.984Z,68.17
2022-12-03T11:54:39.985Z,69.44
2022-12-03T11:57:30.992Z,61.21
2022-12-03T12:00:28.666Z,52.34
2022-12-03T12:02:58.592Z,49.88
2022-12-03T12:05:30.266Z,52.10
2022-12-03T12:08:00.998Z,54.36
2022-12-03T12:10:49.563Z,56.28
2022-12-03T12:13:32.731Z,56.69
2022-12-03T12:16:11.195Z,59.77
2022-12-03T12:18:45.851Z,67.55
2022-12-03T12:21:50.112Z,69.54
2022-12-03T12:24:43.656Z,61.85
2022-12-03T12:27:15.248Z,51.82
2022-12-03T12:29:50.440Z,49.79
2022-12-03T12:32:23.367Z,52.86
2022-12-03T12:34:57.216Z,54.30
2022-12-03T12:38:00.151Z,56.28
2022-12-03T12:40:32.361Z,56.21
2022-12-03T12:43:28.067Z,59.58
2022-12-03T12:46:18.839Z,71.33
2022-12-03T12:48:49.580Z,71.14
2022-12-03T12:51:21.552Z,65.20
2022-12-03T12:53:50.387Z,54.02
2022-12-03T12:56:32.807Z,50.12
2022-12-03T12:59:20.599Z,50.78
2022-12-03T13:01:50.348Z,53.31
2022-12-03T13:04:22.817Z,57.29
2022-12-03T13:06:54.219Z,58.68
2022-12-03T13:09:25.545Z,60.11
2022-12-03T13:12:01.286Z,68.81
2022-12-03T13:14:37.066Z,72.77
2022-12-03T13:17:16.727Z,64.78
2022-12-03T13:20:00.584Z,54.36
2022-12-03T13:22:33.033Z,50.48
2022-12-03T13:25:57.355Z,51.78
2022-12-03T13:28:20.196Z,53.40
2022-12-03T13:30:48.099Z,57.26
2022-12-03T13:33:26.638Z,65.14
2022-12-03T13:35:56.598Z,69.55
2022-12-03T13:38:26.068Z,60.57
2022-12-03T13:41:03.069Z,51.33
2022-12-03T13:43:32.948Z,48.58
2022-12-03T13:46:01.438Z,50.99
2022-12-03T13:48:35.225Z,52.23
2022-12-03T13:51:27.230Z,54.92
2022-12-03T13:53:55.465Z,57.94
2022-12-03T13:56:32.862Z,60.71
2022-12-03T13:59:02.228Z,69.75
2022-12-03T14:01:30.776Z,70.61
2022-12-03T14:03:59.079Z,60.95
2022-12-03T14:06:26.999Z,51.82
2022-12-03T14:08:54.946Z,49.97
2022-12-03T14:11:41.392Z,51.98
2022-12-03T14:14:09.456Z,53.07
2022-12-03T14:16:37.387Z,55.02
2022-12-03T14:19:06.380Z,57.75
2022-12-03T14:21:34.323Z,59.16
2022-12-03T14:24:02.266Z,67.59
2022-12-03T14:26:30.153Z,70.56
2022-12-03T14:28:58.125Z,60.55
2022-12-03T14:31:26.003Z,52.53
2022-12-03T14:33:53.924Z,51.51
2022-12-03T14:36:21.870Z,52.24
2022-12-03T14:38:49.792Z,53.96
2022-12-03T14:41:36.574Z,56.59
2022-12-03T14:44:04.533Z,58.91
2022-12-03T14:46:32.587Z,66.85
2022-12-03T14:49:00.454Z,74.67
2022-12-03T14:51:28.390Z,67.73
2022-12-03T14:53:56.426Z,55.71
2022-12-03T14:56:24.415Z,51.14
2022-12-03T14:58:52.336Z,51.78
2022-12-03T15:01:20.257Z,54.35
2022-12-03T15:03:48.331Z,56.37
2022-12-03T15:06:16.201Z,58.70
2022-12-03T15:08:44.899Z,66.47
2022-12-03T15:11:12.885Z,72.71
2022-12-03T15:13:40.783Z,65.31
2022-12-03T15:16:09.048Z,60.50
2022-12-03T15:18:36.985Z,51.69
2022-12-03T15:21:05.003Z,49.26
2022-12-03T15:23:32.827Z,50.88
2022-12-03T15:26:00.941Z,53.19
2022-12-03T15:28:28.882Z,55.36
2022-12-03T15:30:57.046Z,58.43
2022-12-03T15:33:25.974Z,60.32
2022-12-03T15:35:53.988Z,68.44
2022-12-03T15:38:21.964Z,73.88
2022-12-03T15:40:51.333Z,69.16
2022-12-03T15:43:19.185Z,62.46
2022-12-03T15:45:47.346Z,54.53
2022-12-03T15:48:15.769Z,51.73
2022-12-03T15:50:43.722Z,52.17
2022-12-03T15:53:11.590Z,54.29
2022-12-03T15:55:39.555Z,56.79
2022-12-03T15:58:07.506Z,59.38
2022-12-03T16:00:35.337Z,61.54
2022-12-03T16:03:03.273Z,68.96
2022-12-03T16:05:31.207Z,74.27
2022-12-03T16:07:59.146Z,67.25
2022-12-03T16:10:27.121Z,55.62
2022-12-03T16:12:55.040Z,51.30
2022-12-03T16:15:26.858Z,52.81
2022-12-03T16:17:55.469Z,54.35
2022-12-03T16:20:23.446Z,56.85
2022-12-03T16:22:52.213Z,58.67
2022-12-03T16:25:20.060Z,60.09
2022-12-03T16:27:47.952Z,68.86
2022-12-03T16:30:16.107Z,72.75
2022-12-03T16:32:43.973Z,66.52
2022-12-03T16:35:11.819Z,57.13
2022-12-03T16:37:39.649Z,51.34
2022-12-03T16:40:08.814Z,51.65
2022-12-03T16:42:37.477Z,53.10
2022-12-03T16:45:08.851Z,57.85
2022-12-03T16:47:37.142Z,59.18
2022-12-03T16:50:10.632Z,65.85
2022-12-03T16:52:40.730Z,73.97
2022-12-03T16:55:09.455Z,67.83
2022-12-03T16:57:37.377Z,60.28
2022-12-03T17:00:08.431Z,52.85
2022-12-03T17:02:36.472Z,50.00
2022-12-03T17:05:04.917Z,51.31
2022-12-03T17:07:33.155Z,53.07
2022-12-03T17:10:01.309Z,55.37
2022-12-03T17:12:42.167Z,57.40
2022-12-03T17:15:11.190Z,58.46
2022-12-03T17:17:39.208Z,65.10
2022-12-03T17:20:08.419Z,70.23
2022-12-03T17:22:36.275Z,64.51
2022-12-03T17:25:04.432Z,60.38
2022-12-03T17:27:32.327Z,55.43
2022-12-03T17:30:00.775Z,52.89
2022-12-03T17:32:29.135Z,53.42
2022-12-03T17:34:57.317Z,55.78
2022-12-03T17:37:25.521Z,58.62
2022-12-03T17:39:53.751Z,63.92
2022-12-03T17:42:22.079Z,69.91
2022-12-03T17:44:50.081Z,66.52
2022-12-03T17:47:18.027Z,62.82
2022-12-03T17:49:45.934Z,56.65
2022-12-03T17:52:13.873Z,53.40
2022-12-03T17:55:08.963Z,54.49
2022-12-03T17:57:29.776Z,55.73
2022-12-03T17:59:57.740Z,57.81
2022-12-03T18:02:25.656Z,60.87
2022-12-03T18:04:53.692Z,67.82
2022-12-03T18:07:21.778Z,72.91
2022-12-03T18:09:50.065Z,66.61
2022-12-03T18:12:17.985Z,61.59
2022-12-03T18:14:45.927Z,55.87
2022-12-03T18:17:14.521Z,52.88
2022-12-03T18:19:42.466Z,53.96
2022-12-03T18:22:10.376Z,56.77
2022-12-03T18:24:38.310Z,58.13
2022-12-03T18:27:06.256Z,62.82
2022-12-03T18:29:34.350Z,68.69
2022-12-03T18:32:02.319Z,67.80
2022-12-03T18:34:30.239Z,63.54
2022-12-03T18:36:58.093Z,59.52
2022-12-03T18:39:34.060Z,53.89
2022-12-03T18:42:06.747Z,53.28
2022-12-03T18:44:34.696Z,55.50
2022-12-03T18:47:02.817Z,58.21
2022-12-03T18:49:30.711Z,60.47
2022-12-03T18:51:59.727Z,66.24
2022-12-03T18:54:28.152Z,71.68
2022-12-03T18:56:56.318Z,68.60
2022-12-03T18:59:24.234Z,64.58
2022-12-03T19:01:52.193Z,61.62
2022-12-03T19:04:21.651Z,56.51
2022-12-03T19:06:49.705Z,52.76
2022-12-03T19:09:17.784Z,53.82
2022-12-03T19:11:45.629Z,56.06
2022-12-03T19:14:13.627Z,57.56
2022-12-03T19:16:42.074Z,58.93
2022-12-03T19:19:10.354Z,64.06
2022-12-03T19:21:38.462Z,70.26
2022-12-03T19:26:55.719Z,62.64
2022-12-03T19:29:24.790Z,56.64
2022-12-03T19:31:53.177Z,53.30
2022-12-03T19:34:21.513Z,54.16
2022-12-03T19:36:49.624Z,57.13
2022-12-03T19:39:17.544Z,57.55
2022-12-03T19:41:45.503Z,58.81
2022-12-03T19:44:16.234Z,65.33
2022-12-03T19:46:45.031Z,71.43
2022-12-03T19:49:13.010Z,65.47
2022-12-03T19:51:40.916Z,61.56
2022-12-03T19:54:12.049Z,56.77
2022-12-03T19:56:40.348Z,52.79
2022-12-03T19:59:08.957Z,54.04
2022-12-03T20:01:38.448Z,55.55
2022-12-03T20:04:07.931Z,56.89
2022-12-03T20:06:39.227Z,58.79
2022-12-03T20:09:16.426Z,64.95
2022-12-03T20:11:46.006Z,71.02
2022-12-03T20:14:16.548Z,65.16
2022-12-03T20:16:45.588Z,55.97
2022-12-03T20:19:17.883Z,52.24
2022-12-03T20:21:46.143Z,52.66
2022-12-03T20:24:17.446Z,54.11
2022-12-03T20:26:45.820Z,56.52
2022-12-03T20:29:14.894Z,58.11
2022-12-03T20:31:42.929Z,58.77
2022-12-03T20:34:11.443Z,60.26
2022-12-03T20:36:40.190Z,67.89
2022-12-03T20:39:08.538Z,74.18
2022-12-03T20:41:37.607Z,65.77
2022-12-03T20:44:07.691Z,57.16
2022-12-03T20:46:36.450Z,52.36
2022-12-03T20:49:05.166Z,53.27
2022-12-03T20:51:33.305Z,54.03
2022-12-03T20:54:01.868Z,55.58
2022-12-03T20:56:34.881Z,57.49
2022-12-03T20:59:10.513Z,58.65
2022-12-03T21:01:39.193Z,67.60
2022-12-03T21:04:08.945Z,72.87
2022-12-03T21:06:37.804Z,63.76
2022-12-03T21:09:07.239Z,54.95
2022-12-03T21:11:39.270Z,51.81
2022-12-03T21:14:09.160Z,52.17
2022-12-03T21:17:07.219Z,54.80
2022-12-03T21:19:27.767Z,56.28
2022-12-03T21:21:55.706Z,59.35
2022-12-03T21:24:23.765Z,65.54
2022-12-03T21:26:51.682Z,71.71
2022-12-03T21:29:19.604Z,66.87
2022-12-03T21:31:47.511Z,60.35
2022-12-03T21:34:15.832Z,52.41
2022-12-03T21:36:43.695Z,50.80
2022-12-03T21:39:11.646Z,52.78
2022-12-03T21:41:39.549Z,55.00
2022-12-03T21:44:07.523Z,56.63
2022-12-03T21:47:10.048Z,57.69
2022-12-03T21:49:23.526Z,59.23
2022-12-03T21:51:51.487Z,67.89
2022-12-03T21:54:19.355Z,73.16
2022-12-03T21:56:47.203Z,64.39
2022-12-03T21:59:15.145Z,54.85
2022-12-03T22:01:47.116Z,50.65
2022-12-03T22:04:15.402Z,51.82
2022-12-03T22:06:43.404Z,53.75
2022-12-03T22:09:11.307Z,54.94
2022-12-03T22:11:39.258Z,56.73
2022-12-03T22:14:08.358Z,58.14
2022-12-03T22:16:36.373Z,59.45
2022-12-03T22:19:04.443Z,67.19
2022-12-03T22:21:32.336Z,73.57
2022-12-03T22:24:00.197Z,66.24
2022-12-03T22:26:28.096Z,56.44
2022-12-03T22:28:56.021Z,50.88
2022-12-03T22:31:23.937Z,51.88
2022-12-03T22:33:51.879Z,54.01
2022-12-03T22:36:21.607Z,55.75
2022-12-03T22:38:51.194Z,57.15
2022-12-03T22:41:20.588Z,59.06
2022-12-03T22:43:49.861Z,66.18
2022-12-03T22:46:17.949Z,71.96
2022-12-03T22:48:47.648Z,63.52
2022-12-03T22:51:18.487Z,53.54
2022-12-03T22:53:47.805Z,50.07
2022-12-03T22:56:17.419Z,50.87
2022-12-03T22:58:45.401Z,53.14
2022-12-03T23:01:29.198Z,55.22
2022-12-03T23:03:57.762Z,55.64
2022-12-03T23:06:27.322Z,56.73
2022-12-03T23:08:56.633Z,59.06
2022-12-03T23:11:25.231Z,67.09
2022-12-03T23:13:53.302Z,72.62
2022-12-03T23:16:29.415Z,62.67
2022-12-03T23:18:59.775Z,52.33
2022-12-03T23:21:31.452Z,49.55
2022-12-03T23:24:04.960Z,50.70
2022-12-03T23:26:38.491Z,53.26
2022-12-03T23:29:08.710Z,55.23
2022-12-03T23:31:37.028Z,57.18
2022-12-03T23:34:05.679Z,57.63
2022-12-03T23:36:34.296Z,58.93
2022-12-03T23:39:02.314Z,66.74
2022-12-03T23:41:30.204Z,71.42
2022-12-03T23:43:58.098Z,62.12
2022-12-03T23:46:27.646Z,52.33
2022-12-03T23:48:58.668Z,49.35
2022-12-03T23:51:27.317Z,51.61
2022-12-03T23:53:56.397Z,52.93
2022-12-03T23:56:29.249Z,55.20
2022-12-03T23:58:58.667Z,56.32
